createdAt,value
2024-02-17T00:00:06.009Z,97074.63
2024-02-17T00:02:33.775Z,97077.88
2024-02-17T00:05:00.406Z,97080.59
2024-02-17T00:07:27.330Z,97082.84
2024-02-17T00:09:53.930Z,97074.94
2024-02-17T00:12:20.857Z,97080.44
2024-02-17T00:14:47.400Z,97077.69
2024-02-17T00:17:14.119Z,97077.22
2024-02-17T00:19:41.589Z,97089.00
2024-02-17T00:22:08.359Z,97083.84
2024-02-17T00:24:35.305Z,97084.63
2024-02-17T00:27:01.986Z,97087.72
2024-02-17T00:29:28.819Z,97094.47
2024-02-17T00:31:55.305Z,97090.13
2024-02-17T00:34:22.321Z,97101.56
2024-02-17T00:36:48.988Z,97098.50
2024-02-17T00:39:15.815Z,97098.97
2024-02-17T00:41:43.580Z,97103.66
2024-02-17T00:44:10.418Z,97106.09
2024-02-17T00:46:37.247Z,97106.91
2024-02-17T00:49:04.214Z,97109.63
2024-02-17T00:51:30.816Z,97107.19
2024-02-17T00:53:57.740Z,97112.69
2024-02-17T00:56:24.266Z,97105.59
2024-02-17T00:58:51.690Z,97112.84
2024-02-17T01:01:26.062Z,97118.00
2024-02-17T01:03:57.293Z,97119.47
2024-02-17T01:06:25.263Z,97121.88
2024-02-17T01:08:52.301Z,97125.75
2024-02-17T01:11:20.045Z,97129.31
2024-02-17T01:13:48.493Z,97130.13
2024-02-17T01:16:14.972Z,97127.38
2024-02-17T01:18:42.154Z,97130.91
2024-02-17T01:21:08.885Z,97137.69
2024-02-17T01:23:35.404Z,97132.19
2024-02-17T01:26:01.890Z,97140.09
2024-02-17T01:28:28.636Z,97142.84
2024-02-17T01:30:55.735Z,97140.63
2024-02-17T01:33:22.670Z,97134.00
2024-02-17T01:35:49.270Z,97138.34
2024-02-17T01:38:16.031Z,97141.91
2024-02-17T01:40:42.561Z,97144.31
2024-02-17T01:43:09.500Z,97143.19
2024-02-17T01:45:36.991Z,97148.66
2024-02-17T01:48:04.493Z,97150.59
2024-02-17T01:50:31.394Z,97157.69
2024-02-17T01:53:00.123Z,97151.88
2024-02-17T01:55:27.894Z,97151.59
2024-02-17T01:57:55.097Z,97159.47
2024-02-17T02:00:23.125Z,97154.81
2024-02-17T02:02:50.941Z,97149.00
2024-02-17T02:05:18.414Z,97159.63
2024-02-17T02:07:45.127Z,97158.19
2024-02-17T02:10:12.246Z,97153.50
2024-02-17T02:12:38.958Z,97155.13
2024-02-17T02:15:14.693Z,97153.50
2024-02-17T02:17:44.501Z,97165.59
2024-02-17T02:20:14.420Z,97158.19
2024-02-17T02:22:42.950Z,97162.06
2024-02-17T02:25:19.715Z,97167.88
2024-02-17T02:27:46.296Z,97164.78
2024-02-17T02:30:13.207Z,97167.88
2024-02-17T02:32:39.680Z,97170.13
2024-02-17T02:35:06.631Z,97177.88
2024-02-17T02:37:33.166Z,97177.56
2024-02-17T02:39:59.960Z,97177.56
2024-02-17T02:42:26.480Z,97182.22
2024-02-17T02:44:53.429Z,97178.34
2024-02-17T02:47:19.944Z,97189.00
2024-02-17T02:49:47.176Z,97185.44
2024-02-17T02:52:15.076Z,97181.56
2024-02-17T02:54:41.922Z,97186.25
2024-02-17T02:57:09.337Z,97186.25
2024-02-17T02:59:36.072Z,97185.44
2024-02-17T03:02:04.875Z,97189.00
2024-02-17T03:04:31.634Z,97192.56
2024-02-17T03:06:58.698Z,97188.69
2024-02-17T03:09:25.295Z,97199.31
2024-02-17T03:11:52.063Z,97196.28
2024-02-17T03:14:18.709Z,97194.00
2024-02-17T03:16:45.453Z,97192.88
2024-02-17T03:19:12.182Z,97194.50
2024-02-17T03:21:42.108Z,97204.34
2024-02-17T03:24:09.073Z,97196.91
2024-02-17T03:26:37.898Z,97203.53
2024-02-17T03:29:05.007Z,97201.59
2024-02-17T03:31:31.811Z,97200.78
2024-02-17T03:34:00.517Z,97207.56
2024-02-17T03:36:27.731Z,97214.97
2024-02-17T03:38:54.310Z,97216.59
2024-02-17T03:41:21.152Z,97220.94
2024-02-17T03:43:47.669Z,97219.81
2024-02-17T03:46:14.306Z,97219.00
2024-02-17T03:48:40.802Z,97221.44
2024-02-17T03:51:07.941Z,97230.50
2024-02-17T03:53:36.562Z,97231.63
2024-02-17T03:56:04.410Z,97239.53
2024-02-17T03:58:30.894Z,97244.69
2024-02-17T04:00:57.955Z,97243.88
2024-02-17T04:03:24.610Z,97245.81
2024-02-17T04:05:51.565Z,97250.19
2024-02-17T04:08:18.142Z,97252.91
2024-02-17T04:10:45.009Z,97260.03
2024-02-17T04:13:11.551Z,97260.81
2024-02-17T04:15:40.583Z,97255.66
2024-02-17T04:18:09.741Z,97261.63
2024-02-17T04:20:38.815Z,97270.66
2024-02-17T04:23:09.032Z,97268.72
2024-02-17T04:25:38.964Z,97275.81
2024-02-17T04:28:06.936Z,97279.69
2024-02-17T04:30:34.211Z,97284.88
2024-02-17T04:33:01.317Z,97285.69
2024-02-17T04:35:28.069Z,97289.22
2024-02-17T04:37:55.185Z,97292.28
2024-02-17T04:40:22.241Z,97296.66
2024-02-17T04:42:49.242Z,97298.91
2024-02-17T04:45:16.477Z,97308.44
2024-02-17T04:47:43.004Z,97303.28
2024-02-17T04:50:12.466Z,97315.06
2024-02-17T04:52:39.212Z,97311.50
2024-02-17T04:55:06.259Z,97312.31
2024-02-17T04:57:33.189Z,97319.72
2024-02-17T04:59:59.771Z,97320.88
2024-02-17T05:02:26.873Z,97331.03
2024-02-17T05:04:53.399Z,97329.41
2024-02-17T05:07:20.289Z,97336.03
2024-02-17T05:09:46.793Z,97339.91
2024-02-17T05:12:14.162Z,97331.19
2024-02-17T05:14:40.698Z,97334.25
2024-02-17T05:17:07.477Z,97337.31
2024-02-17T05:19:34.731Z,97340.06
2024-02-17T05:22:01.653Z,97338.91
2024-02-17T05:24:28.278Z,97348.59
2024-02-17T05:26:55.085Z,97350.22
2024-02-17T05:29:21.508Z,97352.97
2024-02-17T05:31:48.353Z,97354.56
2024-02-17T05:34:15.174Z,97360.06
2024-02-17T05:36:41.967Z,97363.59
2024-02-17T05:39:10.593Z,97367.16
2024-02-17T05:41:37.380Z,97369.63
2024-02-17T05:44:04.505Z,97375.09
2024-02-17T05:46:31.184Z,97378.00
2024-02-17T05:48:57.773Z,97375.75
2024-02-17T05:51:24.705Z,97377.69
2024-02-17T05:53:51.210Z,97389.47
2024-02-17T05:56:17.986Z,97382.38
2024-02-17T05:58:45.468Z,97389.47
2024-02-17T06:01:11.955Z,97394.16
2024-02-17T06:03:38.957Z,97405.28
2024-02-17T06:06:05.685Z,97403.66
2024-02-17T06:08:34.786Z,97409.16
2024-02-17T06:11:01.744Z,97414.66
2024-02-17T06:13:30.588Z,97412.22
2024-02-17T06:15:57.317Z,97422.88
2024-02-17T06:18:42.827Z,97434.97
2024-02-17T06:21:12.368Z,97442.72
2024-02-17T06:23:39.461Z,97444.47
2024-02-17T06:26:06.700Z,97457.28
2024-02-17T06:28:33.723Z,97454.63
2024-02-17T06:31:00.450Z,97462.81
2024-02-17T06:33:32.493Z,97469.84
2024-02-17T06:35:59.219Z,97474.16
2024-02-17T06:38:25.883Z,97477.84
2024-02-17T06:40:52.379Z,97485.06
2024-02-17T06:43:19.239Z,97493.09
2024-02-17T06:45:46.380Z,97490.97
2024-02-17T06:48:13.619Z,97493.19
2024-02-17T06:50:40.122Z,97500.63
2024-02-17T06:53:07.010Z,97500.94
2024-02-17T06:55:34.305Z,97507.22
2024-02-17T06:58:00.763Z,97508.03
2024-02-17T07:00:27.598Z,97512.69
2024-02-17T07:02:54.043Z,97518.97
2024-02-17T07:05:20.521Z,97510.75
2024-02-17T07:07:47.008Z,97517.88
2024-02-17T07:10:13.756Z,97518.97
2024-02-17T07:12:40.429Z,97521.13
2024-02-17T07:15:07.274Z,97533.41
2024-02-17T07:17:33.772Z,97535.81
2024-02-17T07:20:00.872Z,97545.66
2024-02-17T07:22:27.773Z,97549.22
2024-02-17T07:24:55.137Z,97549.22
2024-02-17T07:27:22.015Z,97548.88
2024-02-17T07:29:48.966Z,97554.06
2024-02-17T07:32:16.036Z,97550.22
2024-02-17T07:34:44.710Z,97573.47
2024-02-17T07:37:11.165Z,97577.81
2024-02-17T07:39:39.924Z,97580.56
2024-02-17T07:42:09.728Z,97584.59
2024-02-17T07:44:37.374Z,97592.81
2024-02-17T07:47:04.933Z,97593.63
2024-02-17T07:49:33.877Z,97602.34
2024-02-17T07:52:01.131Z,97608.34
2024-02-17T07:54:28.210Z,97609.97
2024-02-17T07:56:54.785Z,97611.59
2024-02-17T07:59:21.584Z,97623.06
2024-02-17T08:01:48.131Z,97632.28
2024-02-17T08:04:15.085Z,97631.69
2024-02-17T08:06:41.891Z,97640.09
2024-02-17T08:09:09.248Z,97637.72
2024-02-17T08:11:36.654Z,97645.00
2024-02-17T08:14:05.794Z,97653.44
2024-02-17T08:16:33.176Z,97661.38
2024-02-17T08:19:00.202Z,97661.53
2024-02-17T08:21:26.798Z,97659.50
2024-02-17T08:23:53.550Z,97655.81
2024-02-17T08:26:20.934Z,97663.31
2024-02-17T08:28:47.665Z,97663.81
2024-02-17T08:31:14.178Z,97666.28
2024-02-17T08:33:41.118Z,97670.38
2024-02-17T08:36:08.136Z,97682.97
2024-02-17T08:38:34.780Z,97686.38
2024-02-17T08:41:04.012Z,97687.19
2024-02-17T08:43:30.821Z,97688.31
2024-02-17T08:45:57.657Z,97695.00
2024-02-17T08:48:24.508Z,97699.53
2024-02-17T08:50:52.677Z,97699.75
2024-02-17T08:53:22.656Z,97698.28
2024-02-17T08:55:49.124Z,97694.63
2024-02-17T08:58:15.927Z,97703.84
2024-02-17T09:00:51.684Z,97702.72
2024-02-17T09:03:19.382Z,97704.16
2024-02-17T09:05:46.204Z,97710.16
2024-02-17T09:08:12.646Z,97712.09
2024-02-17T09:10:39.495Z,97721.81
2024-02-17T09:13:05.989Z,97725.19
2024-02-17T09:15:33.890Z,97731.38
2024-02-17T09:18:02.076Z,97727.00
2024-02-17T09:20:29.045Z,97730.19
2024-02-17T09:22:55.540Z,97731.31
2024-02-17T09:25:22.265Z,97731.13
2024-02-17T09:27:48.836Z,97738.16
2024-02-17T09:30:16.018Z,97737.91
2024-02-17T09:32:42.735Z,97737.22
2024-02-17T09:35:10.272Z,97740.50
2024-02-17T09:37:39.425Z,97744.22
2024-02-17T09:40:07.781Z,97750.72
2024-02-17T09:42:34.413Z,97751.53
2024-02-17T09:45:01.360Z,97753.75
2024-02-17T09:47:31.625Z,97756.56
2024-02-17T09:49:59.610Z,97764.78
2024-02-17T09:52:27.977Z,97763.53
2024-02-17T09:54:55.801Z,97763.69
2024-02-17T09:57:22.275Z,97774.97
2024-02-17T09:59:49.139Z,97768.53
2024-02-17T10:02:15.767Z,97775.50
2024-02-17T10:04:56.191Z,97778.59
2024-02-17T10:07:23.043Z,97790.25
2024-02-17T10:09:50.005Z,97789.34
2024-02-17T10:12:18.776Z,97793.63
2024-02-17T10:14:45.948Z,97795.31
2024-02-17T10:17:13.529Z,97799.19
2024-02-17T10:19:42.270Z,97794.75
2024-02-17T10:22:09.084Z,97798.56
2024-02-17T10:24:35.931Z,97800.97
2024-02-17T10:27:03.516Z,97807.56
2024-02-17T10:29:30.081Z,97807.69
2024-02-17T10:31:59.059Z,97815.38
2024-02-17T10:34:25.851Z,97818.34
2024-02-17T10:36:53.685Z,97814.50
2024-02-17T10:39:22.344Z,97811.50
2024-02-17T10:41:49.900Z,97810.59
2024-02-17T10:44:16.742Z,97816.63
2024-02-17T10:46:47.512Z,97819.34
2024-02-17T10:49:31.315Z,97817.22
2024-02-17T10:52:04.158Z,97821.31
2024-02-17T10:54:55.587Z,97822.59
2024-02-17T10:57:24.149Z,97826.53
2024-02-17T10:59:52.692Z,97826.19
2024-02-17T11:02:25.605Z,97827.47
2024-02-17T11:04:52.787Z,97832.34
2024-02-17T11:07:20.960Z,97826.06
2024-02-17T11:09:47.497Z,97828.50
2024-02-17T11:12:29.668Z,97820.22
2024-02-17T11:15:04.607Z,97824.72
2024-02-17T11:17:52.543Z,97828.03
2024-02-17T11:20:20.200Z,97816.44
2024-02-17T11:22:56.593Z,97820.19
2024-02-17T11:25:35.324Z,97826.91
2024-02-17T11:28:06.466Z,97828.59
2024-02-17T11:30:58.019Z,97833.66
2024-02-17T11:33:31.416Z,97825.59
2024-02-17T11:36:18.987Z,97828.75
2024-02-17T11:38:47.457Z,97840.44
2024-02-17T11:41:16.341Z,97837.72
2024-02-17T11:43:43.437Z,97833.69
2024-02-17T11:46:14.396Z,97835.66
2024-02-17T11:48:43.051Z,97828.19
2024-02-17T11:51:09.613Z,97830.59
2024-02-17T11:53:36.582Z,97829.94
2024-02-17T11:56:03.666Z,97818.94
2024-02-17T11:58:31.419Z,97816.91
2024-02-17T12:00:58.613Z,97818.06
2024-02-17T12:03:29.584Z,97818.72
2024-02-17T12:06:02.539Z,97821.09
2024-02-17T12:08:30.298Z,97825.69
2024-02-17T12:10:57.910Z,97819.94
2024-02-17T12:13:25.627Z,97826.59
2024-02-17T12:15:52.658Z,97828.91
2024-02-17T12:18:21.427Z,97831.00
2024-02-17T12:20:51.232Z,97836.69
2024-02-17T12:23:18.768Z,97835.22
2024-02-17T12:25:45.587Z,97828.25
2024-02-17T12:28:13.229Z,97828.38
2024-02-17T12:30:50.793Z,97837.63
2024-02-17T12:33:22.939Z,97827.88
2024-02-17T12:35:50.990Z,97828.53
2024-02-17T12:38:20.945Z,97835.88
2024-02-17T12:40:49.220Z,97822.84
2024-02-17T12:43:20.965Z,97827.34
2024-02-17T12:45:48.200Z,97829.28
2024-02-17T12:48:15.422Z,97830.97
2024-02-17T12:50:42.767Z,97832.31
2024-02-17T12:53:16.784Z,97837.88
2024-02-17T12:55:45.082Z,97834.97
2024-02-17T12:58:13.172Z,97837.63
2024-02-17T13:00:40.300Z,97845.59
2024-02-17T13:03:10.256Z,97839.59
2024-02-17T13:05:41.209Z,97829.25
2024-02-17T13:08:08.390Z,97829.56
2024-02-17T13:10:35.049Z,97842.38
2024-02-17T13:13:01.627Z,97841.72
2024-02-17T13:15:28.212Z,97844.00
2024-02-17T13:17:55.082Z,97847.44
2024-02-17T13:20:21.701Z,97839.09
2024-02-17T13:22:48.419Z,97852.50
2024-02-17T13:25:15.069Z,97841.97
2024-02-17T13:27:41.677Z,97833.78
2024-02-17T13:30:14.224Z,97837.03
2024-02-17T13:32:44.118Z,97835.34
2024-02-17T13:35:15.933Z,97828.78
2024-02-17T13:37:44.447Z,97832.66
2024-02-17T13:40:17.739Z,97834.59
2024-02-17T13:42:45.232Z,97836.34
2024-02-17T13:45:12.593Z,97827.16
2024-02-17T13:47:39.798Z,97830.59
2024-02-17T13:50:13.589Z,97828.84
2024-02-17T13:52:40.593Z,97836.34
2024-02-17T14:02:36.922Z,97834.53
2024-02-17T14:05:04.083Z,97849.19
2024-02-17T14:07:30.652Z,97852.34
2024-02-17T14:09:57.673Z,97860.53
2024-02-17T14:12:24.734Z,97858.56
2024-02-17T14:14:51.494Z,97862.69
2024-02-17T14:17:18.400Z,97871.22
2024-02-17T14:19:47.567Z,97872.38
2024-02-17T14:22:14.805Z,97869.66
2024-02-17T14:24:41.973Z,97864.41
2024-02-17T14:27:08.640Z,97867.94
2024-02-17T14:29:37.490Z,97876.03
2024-02-17T14:32:05.604Z,97883.91
2024-02-17T14:34:32.631Z,97885.66
2024-02-17T14:37:00.663Z,97883.97
2024-02-17T14:39:28.044Z,97874.44
2024-02-17T14:41:55.526Z,97886.66
2024-02-17T14:44:22.198Z,97891.34
2024-02-17T14:46:49.063Z,97878.78
2024-02-17T14:49:15.895Z,97883.00
2024-02-17T14:51:43.093Z,97887.78
2024-02-17T14:54:09.723Z,97892.00
2024-02-17T14:56:36.564Z,97887.13
2024-02-17T14:59:03.008Z,97887.44
2024-02-17T15:01:30.108Z,97886.72
2024-02-17T15:03:56.864Z,97880.69
2024-02-17T15:06:23.958Z,97895.41
2024-02-17T15:08:50.505Z,97890.88
2024-02-17T15:11:20.164Z,97884.06
2024-02-17T15:13:50.531Z,97898.81
2024-02-17T15:16:18.589Z,97896.63
2024-02-17T15:18:45.243Z,97903.59
2024-02-17T15:21:12.443Z,97902.66
2024-02-17T15:23:39.173Z,97904.09
2024-02-17T15:26:06.621Z,97910.19
2024-02-17T15:28:34.268Z,97911.09
2024-02-17T15:31:01.037Z,97908.41
2024-02-17T15:33:28.743Z,97921.63
2024-02-17T15:35:56.804Z,97916.50
2024-02-17T15:38:26.023Z,97917.94
2024-02-17T15:40:54.275Z,97915.25
2024-02-17T15:43:21.847Z,97925.06
2024-02-17T15:45:48.687Z,97925.28
2024-02-17T15:48:15.852Z,97920.09
2024-02-17T15:50:42.400Z,97926.13
2024-02-17T15:53:09.832Z,97918.50
2024-02-17T15:55:39.470Z,97929.03
2024-02-17T15:58:06.050Z,97939.09
2024-02-17T16:00:32.933Z,97929.94
2024-02-17T16:03:05.977Z,97940.28
2024-02-17T16:05:34.182Z,97951.94
2024-02-17T16:08:01.171Z,97944.41
2024-02-17T16:10:27.754Z,97950.22
2024-02-17T16:12:54.617Z,97951.03
2024-02-17T16:15:21.284Z,97959.19
2024-02-17T16:17:48.901Z,97950.81
2024-02-17T16:20:16.188Z,97963.22
2024-02-17T16:22:43.999Z,97962.72
2024-02-17T16:25:11.710Z,97967.25
2024-02-17T16:27:39.018Z,97966.75
2024-02-17T16:30:06.509Z,97983.31
2024-02-17T16:32:33.409Z,97980.34
2024-02-17T16:35:00.368Z,97975.47
2024-02-17T16:37:27.071Z,97982.09
2024-02-17T16:39:54.874Z,97984.03
2024-02-17T16:42:26.888Z,97988.63
2024-02-17T16:44:54.089Z,97991.56
2024-02-17T16:47:21.384Z,97997.25
2024-02-17T16:49:48.516Z,97997.13
2024-02-17T16:52:15.900Z,97995.88
2024-02-17T16:54:42.884Z,98001.78
2024-02-17T16:57:09.802Z,98007.34
2024-02-17T16:59:38.281Z,97998.91
2024-02-17T17:02:05.690Z,98009.16
2024-02-17T17:04:36.020Z,98018.34
2024-02-17T17:07:08.866Z,98019.63
2024-02-17T17:09:36.949Z,98023.66
2024-02-17T17:12:08.191Z,98024.63
2024-02-17T17:14:37.114Z,98036.50
2024-02-17T17:17:04.365Z,98031.34
2024-02-17T17:19:31.730Z,98031.41
2024-02-17T17:21:58.831Z,98038.91
2024-02-17T17:24:29.453Z,98038.44
2024-02-17T17:26:56.039Z,98035.78
2024-02-17T17:29:22.549Z,98041.91
2024-02-17T17:31:49.330Z,98040.94
2024-02-17T17:34:17.745Z,98041.06
2024-02-17T17:36:44.809Z,98046.97
2024-02-17T17:39:11.897Z,98047.34
2024-02-17T17:41:38.476Z,98051.31
2024-02-17T17:44:06.728Z,98049.50
2024-02-17T17:46:33.431Z,98044.44
2024-02-17T17:49:00.456Z,98049.47
2024-02-17T17:51:27.378Z,98050.69
2024-02-17T17:53:54.215Z,98045.31
2024-02-17T17:56:20.763Z,98054.13
2024-02-17T17:58:51.051Z,98059.09
2024-02-17T18:04:08.819Z,98055.41
2024-02-17T18:06:35.901Z,98067.97
2024-02-17T18:09:02.798Z,98067.22
2024-02-17T18:11:29.328Z,98069.75
2024-02-17T18:13:56.262Z,98052.91
2024-02-17T18:16:22.706Z,98064.38
2024-02-17T18:18:49.579Z,98065.25
2024-02-17T18:21:16.612Z,98064.75
2024-02-17T18:23:43.546Z,98063.97
2024-02-17T18:26:10.159Z,98070.03
2024-02-17T18:28:36.606Z,98080.13
2024-02-17T18:31:03.452Z,98079.34
2024-02-17T18:33:30.101Z,98079.97
2024-02-17T18:35:56.916Z,98081.63
2024-02-17T18:38:25.010Z,98076.19
2024-02-17T18:40:51.840Z,98081.34
2024-02-17T18:43:18.380Z,98082.47
2024-02-17T18:45:50.360Z,98082.22
2024-02-17T18:48:17.605Z,98083.84
2024-02-17T18:50:46.913Z,98090.09
2024-02-17T18:53:14.586Z,98084.66
2024-02-17T18:55:41.924Z,98088.22
2024-02-17T18:58:08.434Z,98092.56
2024-02-17T19:00:34.978Z,98097.75
2024-02-17T19:03:02.007Z,98094.47
2024-02-17T19:05:28.760Z,98100.19
2024-02-17T19:07:55.429Z,98105.34
2024-02-17T19:10:22.876Z,98096.88
2024-02-17T19:12:49.885Z,98102.03
2024-02-17T19:15:17.121Z,98105.00
2024-02-17T19:17:43.945Z,98102.78
2024-02-17T19:20:11.319Z,98103.88
2024-02-17T19:22:39.065Z,98111.72
2024-02-17T19:25:06.157Z,98109.81
2024-02-17T19:27:33.167Z,98109.00
2024-02-17T19:29:59.730Z,98103.53
2024-02-17T19:32:26.414Z,98103.47
2024-02-17T19:34:53.439Z,98103.47
2024-02-17T19:37:20.160Z,98101.56
2024-02-17T19:39:47.242Z,98099.41
2024-02-17T19:42:16.146Z,98104.28
2024-02-17T19:44:42.691Z,98106.97
2024-02-17T19:47:09.432Z,98114.56
2024-02-17T19:49:36.113Z,98106.34
2024-02-17T19:52:04.162Z,98109.59
2024-02-17T19:54:30.763Z,98116.38
2024-02-17T19:56:57.508Z,98114.94
2024-02-17T19:59:24.034Z,98114.34
2024-02-17T20:01:52.692Z,98114.88
2024-02-17T20:04:19.313Z,98115.09
2024-02-17T20:06:46.275Z,98107.47
2024-02-17T20:09:12.984Z,98120.75
2024-02-17T20:11:39.956Z,98122.91
2024-02-17T20:14:10.195Z,98123.38
2024-02-17T20:16:37.230Z,98122.22
2024-02-17T20:19:04.025Z,98131.44
2024-02-17T20:21:32.556Z,98128.69
2024-02-17T20:23:59.093Z,98131.94
2024-02-17T20:26:25.565Z,98118.84
2024-02-17T20:28:53.648Z,98123.13
2024-02-17T20:31:24.319Z,98126.63
2024-02-17T20:33:53.809Z,98129.00
2024-02-17T20:36:22.092Z,98136.66
2024-02-17T20:38:50.332Z,98144.25
2024-02-17T20:41:16.842Z,98129.28
2024-02-17T20:43:43.947Z,98133.63
2024-02-17T20:46:11.728Z,98139.06
2024-02-17T20:48:38.755Z,98135.78
2024-02-17T20:51:05.469Z,98133.88
2024-02-17T20:53:32.245Z,98138.75
2024-02-17T20:55:58.745Z,98138.50
2024-02-17T20:58:25.320Z,98149.91
2024-02-17T21:00:52.003Z,98155.66
2024-02-17T21:03:18.972Z,98152.94
2024-02-17T21:05:49.310Z,98147.53
2024-02-17T21:08:16.325Z,98158.69
2024-02-17T21:10:45.703Z,98162.47
2024-02-17T21:13:12.541Z,98165.75
2024-02-17T21:15:39.912Z,98167.13
2024-02-17T21:18:06.960Z,98163.91
2024-02-17T21:20:34.418Z,98164.47
2024-02-17T21:23:01.609Z,98154.47
2024-02-17T21:25:28.425Z,98150.72
2024-02-17T21:27:56.160Z,98152.41
2024-02-17T21:30:23.190Z,98157.31
2024-02-17T21:32:49.828Z,98154.03
2024-02-17T21:35:16.759Z,98146.66
2024-02-17T21:37:43.253Z,98149.69
2024-02-17T21:40:10.270Z,98149.97
2024-02-17T21:42:36.872Z,98152.16
2024-02-17T21:45:03.758Z,98153.78
2024-02-17T21:47:30.317Z,98151.63
2024-02-17T21:49:57.632Z,98147.78
2024-02-17T21:52:24.420Z,98155.94
2024-02-17T21:54:51.100Z,98146.16
2024-02-17T21:57:17.888Z,98146.91
2024-02-17T21:59:44.470Z,98139.84
2024-02-17T22:02:12.061Z,98130.59
2024-02-17T22:04:39.242Z,98131.94
2024-02-17T22:07:06.292Z,98129.16
2024-02-17T22:09:33.146Z,98131.31
2024-02-17T22:11:59.646Z,98133.72
2024-02-17T22:14:26.463Z,98143.47
2024-02-17T22:16:52.972Z,98135.25
2024-02-17T22:19:19.755Z,98129.81
2024-02-17T22:21:46.363Z,98137.31
2024-02-17T22:24:13.151Z,98132.34
2024-02-17T22:26:41.248Z,98119.50
2024-02-17T22:29:10.513Z,98128.16
2024-02-17T22:31:37.217Z,98124.59
2024-02-17T22:34:04.805Z,98121.50
2024-02-17T22:36:32.140Z,98115.69
2024-02-17T22:38:58.921Z,98125.47
2024-02-17T22:41:25.471Z,98124.31
2024-02-17T22:43:51.963Z,98115.63
2024-02-17T22:46:18.782Z,98117.03
2024-02-17T22:48:45.305Z,98117.78
2024-02-17T22:51:12.200Z,98118.84
2024-02-17T22:53:38.723Z,98118.59
2024-02-17T22:56:07.196Z,98123.66
2024-02-17T22:58:34.452Z,98129.03
2024-02-17T23:01:01.895Z,98135.75
2024-02-17T23:03:29.487Z,98122.97
2024-02-17T23:05:56.718Z,98131.78
2024-02-17T23:08:23.265Z,98134.88
2024-02-17T23:10:50.175Z,98140.97
2024-02-17T23:13:16.761Z,98140.56
2024-02-17T23:15:44.718Z,98138.84
2024-02-17T23:18:11.463Z,98138.53
2024-02-17T23:20:38.488Z,98137.88
2024-02-17T23:23:12.849Z,98138.94
2024-02-17T23:25:41.005Z,98145.13
2024-02-17T23:28:07.804Z,98140.69
2024-02-17T23:30:34.920Z,98138.38
2024-02-17T23:33:01.670Z,98146.44
2024-02-17T23:35:28.431Z,98143.31
2024-02-17T23:37:55.191Z,98143.13
2024-02-17T23:40:25.014Z,98133.78
2024-02-17T23:42:52.092Z,98151.31
2024-02-17T23:45:18.945Z,98144.75
2024-02-17T23:47:45.548Z,98146.53
2024-02-17T23:50:12.575Z,98142.44
2024-02-17T23:52:39.132Z,98142.44
2024-02-17T23:55:06.628Z,98140.78
2024-02-17T23:57:33.216Z,98134.56
2024-02-17T23:59:59.867Z,98145.06
